sensor_id;sensor_type;location;lat;lon;timestamp;P1;durP1;ratioP1;P2;durP2;ratioP2
23146;SDS011;11742;53.532;-1.478;2023-11-21T00:00:11;0.38;;;0.38;;
23146;SDS011;11742;53.532;-1.478;2023-11-21T00:03:05;0.73;;;0.55;;
23146;SDS011;11742;53.532;-1.478;2023-11-21T00:05:53;1.17;;;0.50;;
23146;SDS011;11742;53.532;-1.478;2023-11-21T00:08:49;0.55;;;0.50;;
23146;SDS011;11742;53.532;-1.478;2023-11-21T00:11:48;0.45;;;0.45;;
23146;SDS011;11742;53.532;-1.478;2023-11-21T00:14:46;1.10;;;0.50;;
23146;SDS011;11742;53.532;-1.478;2023-11-21T00:17:37;0.73;;;0.50;;
23146;SDS011;11742;53.532;-1.478;2023-11-21T00:20:22;0.88;;;0.55;;
23146;SDS011;11742;53.532;-1.478;2023-11-21T00:23:09;0.32;;;0.30;;
23146;SDS011;11742;53.532;-1.478;2023-11-21T00:25:59;0.30;;;0.30;;
23146;SDS011;11742;53.532;-1.478;2023-11-21T00:28:43;0.22;;;0.22;;
23146;SDS011;11742;53.532;-1.478;2023-11-21T00:31:32;0.50;;;0.40;;
23146;SDS011;11742;53.532;-1.478;2023-11-21T00:34:24;0.75;;;0.45;;
23146;SDS011;11742;53.532;-1.478;2023-11-21T00:37:08;1.17;;;0.50;;
23146;SDS011;11742;53.532;-1.478;2023-11-21T00:39:57;1.17;;;0.35;;
23146;SDS011;11742;53.532;-1.478;2023-11-21T00:42:48;0.40;;;0.40;;
23146;SDS011;11742;53.532;-1.478;2023-11-21T00:45:32;0.20;;;0.20;;
23146;SDS011;11742;53.532;-1.478;2023-11-21T00:48:23;0.35;;;0.28;;
23146;SDS011;11742;53.532;-1.478;2023-11-21T00:51:18;0.40;;;0.30;;
23146;SDS011;11742;53.532;-1.478;2023-11-21T00:54:05;0.93;;;0.35;;
23146;SDS011;11742;53.532;-1.478;2023-11-21T00:56:52;0.40;;;0.38;;
23146;SDS011;11742;53.532;-1.478;2023-11-21T00:59:38;0.57;;;0.35;;
23146;SDS011;11742;53.532;-1.478;2023-11-21T01:02:23;1.33;;;0.57;;
23146;SDS011;11742;53.532;-1.478;2023-11-21T01:05:10;0.30;;;0.30;;
23146;SDS011;11742;53.532;-1.478;2023-11-21T01:07:59;1.38;;;0.45;;
23146;SDS011;11742;53.532;-1.478;2023-11-21T01:10:46;0.63;;;0.30;;
23146;SDS011;11742;53.532;-1.478;2023-11-21T01:13:40;1.15;;;0.47;;
23146;SDS011;11742;53.532;-1.478;2023-11-21T01:16:32;1.08;;;0.30;;
23146;SDS011;11742;53.532;-1.478;2023-11-21T01:19:19;0.70;;;0.35;;
23146;SDS011;11742;53.532;-1.478;2023-11-21T01:22:06;0.22;;;0.22;;
23146;SDS011;11742;53.532;-1.478;2023-11-21T01:25:12;0.40;;;0.40;;
23146;SDS011;11742;53.532;-1.478;2023-11-21T01:28:05;1.90;;;0.63;;
23146;SDS011;11742;53.532;-1.478;2023-11-21T01:30:57;1.50;;;0.40;;
23146;SDS011;11742;53.532;-1.478;2023-11-21T01:33:48;0.52;;;0.47;;
23146;SDS011;11742;53.532;-1.478;2023-11-21T01:36:35;0.47;;;0.32;;
23146;SDS011;11742;53.532;-1.478;2023-11-21T01:39:28;0.43;;;0.25;;
23146;SDS011;11742;53.532;-1.478;2023-11-21T01:42:25;0.30;;;0.30;;
23146;SDS011;11742;53.532;-1.478;2023-11-21T01:45:14;0.57;;;0.30;;
23146;SDS011;11742;53.532;-1.478;2023-11-21T01:48:04;0.47;;;0.30;;
23146;SDS011;11742;53.532;-1.478;2023-11-21T01:51:00;0.63;;;0.40;;
23146;SDS011;11742;53.532;-1.478;2023-11-21T01:53:49;0.95;;;0.45;;
23146;SDS011;11742;53.532;-1.478;2023-11-21T01:56:46;1.17;;;0.40;;
23146;SDS011;11742;53.532;-1.478;2023-11-21T01:59:54;1.30;;;0.40;;
23146;SDS011;11742;53.532;-1.478;2023-11-21T02:02:46;0.50;;;0.30;;
23146;SDS011;11742;53.532;-1.478;2023-11-21T02:05:35;0.38;;;0.32;;
23146;SDS011;11742;53.532;-1.478;2023-11-21T02:08:29;0.85;;;0.30;;
23146;SDS011;11742;53.532;-1.478;2023-11-21T02:11:30;1.02;;;0.30;;
23146;SDS011;11742;53.532;-1.478;2023-11-21T02:14:21;1.45;;;0.50;;
23146;SDS011;11742;53.532;-1.478;2023-11-21T02:17:21;0.30;;;0.30;;
23146;SDS011;11742;53.532;-1.478;2023-11-21T02:20:12;0.47;;;0.32;;
23146;SDS011;11742;53.532;-1.478;2023-11-21T02:23:03;0.80;;;0.22;;
23146;SDS011;11742;53.532;-1.478;2023-11-21T02:25:53;1.27;;;0.30;;
23146;SDS011;11742;53.532;-1.478;2023-11-21T02:28:44;0.30;;;0.30;;
23146;SDS011;11742;53.532;-1.478;2023-11-21T02:31:29;1.30;;;0.40;;
23146;SDS011;11742;53.532;-1.478;2023-11-21T02:34:21;0.20;;;0.20;;
23146;SDS011;11742;53.532;-1.478;2023-11-21T02:37:14;1.90;;;0.30;;
23146;SDS011;11742;53.532;-1.478;2023-11-21T02:40:05;0.77;;;0.40;;
23146;SDS011;11742;53.532;-1.478;2023-11-21T02:43:01;0.25;;;0.25;;
23146;SDS011;11742;53.532;-1.478;2023-11-21T02:45:46;0.30;;;0.30;;
23146;SDS011;11742;53.532;-1.478;2023-11-21T02:48:49;0.37;;;0.37;;
23146;SDS011;11742;53.532;-1.478;2023-11-21T02:51:37;1.02;;;0.30;;
23146;SDS011;11742;53.532;-1.478;2023-11-21T02:54:23;1.23;;;0.40;;
23146;SDS011;11742;53.532;-1.478;2023-11-21T02:57:11;0.20;;;0.20;;
23146;SDS011;11742;53.532;-1.478;2023-11-21T02:59:57;0.30;;;0.30;;
23146;SDS011;11742;53.532;-1.478;2023-11-21T03:03:08;0.43;;;0.20;;
23146;SDS011;11742;53.532;-1.478;2023-11-21T03:05:54;0.20;;;0.20;;
23146;SDS011;11742;53.532;-1.478;2023-11-21T03:08:45;0.52;;;0.30;;
23146;SDS011;11742;53.532;-1.478;2023-11-21T03:11:37;0.20;;;0.20;;
23146;SDS011;11742;53.532;-1.478;2023-11-21T03:14:45;0.20;;;0.20;;
23146;SDS011;11742;53.532;-1.478;2023-11-21T03:17:32;0.57;;;0.38;;
23146;SDS011;11742;53.532;-1.478;2023-11-21T03:20:21;0.35;;;0.20;;
23146;SDS011;11742;53.532;-1.478;2023-11-21T03:23:14;1.02;;;0.30;;
23146;SDS011;11742;53.532;-1.478;2023-11-21T03:26:13;0.55;;;0.40;;
23146;SDS011;11742;53.532;-1.478;2023-11-21T03:29:06;0.52;;;0.20;;
23146;SDS011;11742;53.532;-1.478;2023-11-21T03:32:00;0.20;;;0.20;;
23146;SDS011;11742;53.532;-1.478;2023-11-21T03:34:56;0.85;;;0.20;;
23146;SDS011;11742;53.532;-1.478;2023-11-21T03:37:42;0.52;;;0.30;;
23146;SDS011;11742;53.532;-1.478;2023-11-21T03:40:38;2.35;;;0.20;;
23146;SDS011;11742;53.532;-1.478;2023-11-21T03:43:23;1.20;;;0.20;;
23146;SDS011;11742;53.532;-1.478;2023-11-21T03:46:08;0.25;;;0.20;;
23146;SDS011;11742;53.532;-1.478;2023-11-21T03:48:55;0.30;;;0.30;;
23146;SDS011;11742;53.532;-1.478;2023-11-21T03:51:42;0.20;;;0.20;;
23146;SDS011;11742;53.532;-1.478;2023-11-21T03:54:35;0.20;;;0.20;;
23146;SDS011;11742;53.532;-1.478;2023-11-21T03:57:49;1.27;;;0.30;;
23146;SDS011;11742;53.532;-1.478;2023-11-21T04:00:40;0.10;;;0.10;;
23146;SDS011;11742;53.532;-1.478;2023-11-21T04:03:25;0.20;;;0.20;;
23146;SDS011;11742;53.532;-1.478;2023-11-21T04:06:18;0.43;;;0.30;;
23146;SDS011;11742;53.532;-1.478;2023-11-21T04:09:11;0.20;;;0.20;;
23146;SDS011;11742;53.532;-1.478;2023-11-21T04:12:01;0.20;;;0.20;;
23146;SDS011;11742;53.532;-1.478;2023-11-21T04:14:53;0.20;;;0.20;;
23146;SDS011;11742;53.532;-1.478;2023-11-21T04:18:06;0.38;;;0.20;;
23146;SDS011;11742;53.532;-1.478;2023-11-21T04:20:57;0.20;;;0.20;;
23146;SDS011;11742;53.532;-1.478;2023-11-21T04:24:04;0.20;;;0.20;;
23146;SDS011;11742;53.532;-1.478;2023-11-21T04:26:58;0.17;;;0.17;;
23146;SDS011;11742;53.532;-1.478;2023-11-21T04:29:47;0.20;;;0.20;;
23146;SDS011;11742;53.532;-1.478;2023-11-21T04:32:38;0.20;;;0.10;;
23146;SDS011;11742;53.532;-1.478;2023-11-21T04:35:25;0.20;;;0.20;;
23146;SDS011;11742;53.532;-1.478;2023-11-21T04:38:11;0.20;;;0.20;;
23146;SDS011;11742;53.532;-1.478;2023-11-21T04:40:57;0.55;;;0.22;;
23146;SDS011;11742;53.532;-1.478;2023-11-21T04:43:44;0.55;;;0.20;;
23146;SDS011;11742;53.532;-1.478;2023-11-21T04:46:33;0.20;;;0.20;;
23146;SDS011;11742;53.532;-1.478;2023-11-21T04:49:29;0.22;;;0.20;;
23146;SDS011;11742;53.532;-1.478;2023-11-21T04:52:28;0.20;;;0.20;;
23146;SDS011;11742;53.532;-1.478;2023-11-21T04:55:16;0.20;;;0.20;;
23146;SDS011;11742;53.532;-1.478;2023-11-21T04:58:02;0.10;;;0.10;;
23146;SDS011;11742;53.532;-1.478;2023-11-21T05:00:55;1.00;;;0.20;;
23146;SDS011;11742;53.532;-1.478;2023-11-21T05:03:47;0.20;;;0.20;;
23146;SDS011;11742;53.532;-1.478;2023-11-21T05:06:37;0.90;;;0.15;;
23146;SDS011;11742;53.532;-1.478;2023-11-21T05:09:29;0.30;;;0.20;;
23146;SDS011;11742;53.532;-1.478;2023-11-21T05:12:19;0.10;;;0.10;;
23146;SDS011;11742;53.532;-1.478;2023-11-21T05:15:13;0.32;;;0.30;;
23146;SDS011;11742;53.532;-1.478;2023-11-21T05:18:11;0.30;;;0.30;;
23146;SDS011;11742;53.532;-1.478;2023-11-21T05:20:59;0.20;;;0.20;;
23146;SDS011;11742;53.532;-1.478;2023-11-21T05:23:45;0.20;;;0.20;;
23146;SDS011;11742;53.532;-1.478;2023-11-21T05:26:33;0.45;;;0.20;;
23146;SDS011;11742;53.532;-1.478;2023-11-21T05:29:23;0.20;;;0.20;;
23146;SDS011;11742;53.532;-1.478;2023-11-21T05:32:10;0.30;;;0.30;;
23146;SDS011;11742;53.532;-1.478;2023-11-21T05:34:54;0.20;;;0.20;;
23146;SDS011;11742;53.532;-1.478;2023-11-21T05:37:46;0.52;;;0.20;;
23146;SDS011;11742;53.532;-1.478;2023-11-21T05:40:53;0.28;;;0.20;;
23146;SDS011;11742;53.532;-1.478;2023-11-21T05:43:45;0.20;;;0.20;;
23146;SDS011;11742;53.532;-1.478;2023-11-21T05:46:36;1.33;;;0.73;;
23146;SDS011;11742;53.532;-1.478;2023-11-21T05:49:23;0.20;;;0.20;;
23146;SDS011;11742;53.532;-1.478;2023-11-21T05:52:28;0.57;;;0.20;;
23146;SDS011;11742;53.532;-1.478;2023-11-21T05:55:15;0.20;;;0.20;;
23146;SDS011;11742;53.532;-1.478;2023-11-21T05:58:05;0.20;;;0.20;;
23146;SDS011;11742;53.532;-1.478;2023-11-21T06:00:51;0.45;;;0.20;;
23146;SDS011;11742;53.532;-1.478;2023-11-21T06:03:46;1.75;;;0.40;;
23146;SDS011;11742;53.532;-1.478;2023-11-21T06:06:33;0.22;;;0.22;;
23146;SDS011;11742;53.532;-1.478;2023-11-21T06:09:19;0.25;;;0.25;;
23146;SDS011;11742;53.532;-1.478;2023-11-21T06:12:10;0.20;;;0.20;;
23146;SDS011;11742;53.532;-1.478;2023-11-21T06:14:59;0.20;;;0.20;;
23146;SDS011;11742;53.532;-1.478;2023-11-21T06:17:51;0.68;;;0.40;;
23146;SDS011;11742;53.532;-1.478;2023-11-21T06:20:39;0.20;;;0.20;;
23146;SDS011;11742;53.532;-1.478;2023-11-21T06:23:26;0.30;;;0.30;;
23146;SDS011;11742;53.532;-1.478;2023-11-21T06:26:17;0.20;;;0.20;;
23146;SDS011;11742;53.532;-1.478;2023-11-21T06:29:09;0.20;;;0.20;;
23146;SDS011;11742;53.532;-1.478;2023-11-21T06:32:12;1.48;;;0.40;;
23146;SDS011;11742;53.532;-1.478;2023-11-21T06:35:05;0.88;;;0.45;;
23146;SDS011;11742;53.532;-1.478;2023-11-21T06:38:02;0.32;;;0.32;;
23146;SDS011;11742;53.532;-1.478;2023-11-21T06:40:52;0.57;;;0.30;;
23146;SDS011;11742;53.532;-1.478;2023-11-21T06:43:37;0.38;;;0.35;;
23146;SDS011;11742;53.532;-1.478;2023-11-21T06:46:26;0.35;;;0.35;;
23146;SDS011;11742;53.532;-1.478;2023-11-21T06:49:36;0.25;;;0.25;;
23146;SDS011;11742;53.532;-1.478;2023-11-21T06:52:24;0.30;;;0.30;;
23146;SDS011;11742;53.532;-1.478;2023-11-21T06:55:14;0.60;;;0.30;;
23146;SDS011;11742;53.532;-1.478;2023-11-21T06:58:00;0.30;;;0.30;;
23146;SDS011;11742;53.532;-1.478;2023-11-21T07:00:54;1.35;;;0.40;;
23146;SDS011;11742;53.532;-1.478;2023-11-21T07:03:42;0.30;;;0.30;;
23146;SDS011;11742;53.532;-1.478;2023-11-21T07:06:28;0.40;;;0.40;;
23146;SDS011;11742;53.532;-1.478;2023-11-21T07:09:44;1.02;;;0.40;;
23146;SDS011;11742;53.532;-1.478;2023-11-21T07:12:30;3.63;;;0.40;;
23146;SDS011;11742;53.532;-1.478;2023-11-21T07:15:20;0.30;;;0.30;;
23146;SDS011;11742;53.532;-1.478;2023-11-21T07:18:14;0.30;;;0.30;;
23146;SDS011;11742;53.532;-1.478;2023-11-21T07:21:09;0.30;;;0.30;;
23146;SDS011;11742;53.532;-1.478;2023-11-21T07:23:55;0.55;;;0.40;;
23146;SDS011;11742;53.532;-1.478;2023-11-21T07:26:42;0.30;;;0.30;;
23146;SDS011;11742;53.532;-1.478;2023-11-21T07:32:19;0.88;;;0.60;;
23146;SDS011;11742;53.532;-1.478;2023-11-21T07:35:04;1.85;;;0.60;;
23146;SDS011;11742;53.532;-1.478;2023-11-21T07:37:54;2.55;;;0.60;;
23146;SDS011;11742;53.532;-1.478;2023-11-21T07:40:51;3.50;;;0.57;;
23146;SDS011;11742;53.532;-1.478;2023-11-21T07:43:36;0.63;;;0.40;;
23146;SDS011;11742;53.532;-1.478;2023-11-21T07:46:26;0.95;;;0.38;;
23146;SDS011;11742;53.532;-1.478;2023-11-21T07:49:17;0.40;;;0.40;;
23146;SDS011;11742;53.532;-1.478;2023-11-21T07:52:05;2.30;;;0.50;;
23146;SDS011;11742;53.532;-1.478;2023-11-21T07:55:02;1.83;;;0.60;;
23146;SDS011;11742;53.532;-1.478;2023-11-21T07:57:51;0.85;;;0.73;;
23146;SDS011;11742;53.532;-1.478;2023-11-21T08:00:51;2.92;;;0.60;;
23146;SDS011;11742;53.532;-1.478;2023-11-21T08:03:42;1.55;;;0.60;;
23146;SDS011;11742;53.532;-1.478;2023-11-21T08:06:29;0.98;;;0.40;;
23146;SDS011;11742;53.532;-1.478;2023-11-21T08:09:33;2.30;;;0.60;;
23146;SDS011;11742;53.532;-1.478;2023-11-21T08:12:18;2.05;;;0.50;;
23146;SDS011;11742;53.532;-1.478;2023-11-21T08:15:04;2.10;;;0.60;;
23146;SDS011;11742;53.532;-1.478;2023-11-21T08:17:49;2.05;;;0.40;;
23146;SDS011;11742;53.532;-1.478;2023-11-21T08:20:33;1.58;;;0.60;;
23146;SDS011;11742;53.532;-1.478;2023-11-21T08:23:20;3.08;;;0.50;;
23146;SDS011;11742;53.532;-1.478;2023-11-21T08:26:08;2.40;;;0.73;;
23146;SDS011;11742;53.532;-1.478;2023-11-21T08:28:52;1.02;;;0.40;;
23146;SDS011;11742;53.532;-1.478;2023-11-21T08:31:37;1.65;;;0.70;;
23146;SDS011;11742;53.532;-1.478;2023-11-21T08:34:21;1.40;;;0.63;;
23146;SDS011;11742;53.532;-1.478;2023-11-21T08:37:05;0.45;;;0.40;;
23146;SDS011;11742;53.532;-1.478;2023-11-21T08:39:50;1.98;;;0.52;;
23146;SDS011;11742;53.532;-1.478;2023-11-21T08:42:36;1.17;;;0.60;;
23146;SDS011;11742;53.532;-1.478;2023-11-21T08:45:21;1.38;;;0.73;;
23146;SDS011;11742;53.532;-1.478;2023-11-21T08:48:06;1.15;;;0.57;;
23146;SDS011;11742;53.532;-1.478;2023-11-21T08:50:51;0.70;;;0.60;;
23146;SDS011;11742;53.532;-1.478;2023-11-21T08:53:35;1.42;;;0.55;;
23146;SDS011;11742;53.532;-1.478;2023-11-21T08:56:19;2.88;;;0.80;;
23146;SDS011;11742;53.532;-1.478;2023-11-21T08:59:04;1.83;;;0.65;;
23146;SDS011;11742;53.532;-1.478;2023-11-21T09:01:52;1.45;;;0.60;;
23146;SDS011;11742;53.532;-1.478;2023-11-21T09:04:38;1.33;;;0.50;;
23146;SDS011;11742;53.532;-1.478;2023-11-21T09:07:23;2.08;;;0.93;;
23146;SDS011;11742;53.532;-1.478;2023-11-21T09:10:08;1.20;;;0.60;;
23146;SDS011;11742;53.532;-1.478;2023-11-21T09:12:59;1.75;;;0.75;;
23146;SDS011;11742;53.532;-1.478;2023-11-21T09:15:52;2.08;;;0.63;;
23146;SDS011;11742;53.532;-1.478;2023-11-21T09:18:42;2.33;;;1.08;;
23146;SDS011;11742;53.532;-1.478;2023-11-21T09:21:27;2.03;;;0.80;;
23146;SDS011;11742;53.532;-1.478;2023-11-21T09:24:13;1.17;;;0.60;;
23146;SDS011;11742;53.532;-1.478;2023-11-21T09:26:58;1.15;;;0.63;;
23146;SDS011;11742;53.532;-1.478;2023-11-21T09:29:44;1.30;;;0.60;;
23146;SDS011;11742;53.532;-1.478;2023-11-21T09:32:32;1.02;;;0.70;;
23146;SDS011;11742;53.532;-1.478;2023-11-21T09:35:18;1.23;;;0.60;;
23146;SDS011;11742;53.532;-1.478;2023-11-21T09:38:06;3.13;;;0.90;;
23146;SDS011;11742;53.532;-1.478;2023-11-21T09:40:54;1.10;;;0.65;;
23146;SDS011;11742;53.532;-1.478;2023-11-21T09:43:45;0.98;;;0.65;;
23146;SDS011;11742;53.532;-1.478;2023-11-21T09:46:44;2.65;;;0.77;;
23146;SDS011;11742;53.532;-1.478;2023-11-21T09:49:46;1.75;;;0.70;;
23146;SDS011;11742;53.532;-1.478;2023-11-21T09:52:49;0.70;;;0.50;;
23146;SDS011;11742;53.532;-1.478;2023-11-21T09:55:43;3.10;;;0.90;;
23146;SDS011;11742;53.532;-1.478;2023-11-21T09:58:32;2.05;;;0.60;;
23146;SDS011;11742;53.532;-1.478;2023-11-21T10:01:19;3.22;;;1.20;;
23146;SDS011;11742;53.532;-1.478;2023-11-21T10:04:07;0.95;;;0.55;;
23146;SDS011;11742;53.532;-1.478;2023-11-21T10:06:57;1.20;;;0.80;;
23146;SDS011;11742;53.532;-1.478;2023-11-21T10:09:44;2.67;;;0.93;;
23146;SDS011;11742;53.532;-1.478;2023-11-21T10:12:35;2.13;;;0.60;;
23146;SDS011;11742;53.532;-1.478;2023-11-21T10:15:23;1.00;;;0.70;;
23146;SDS011;11742;53.532;-1.478;2023-11-21T10:18:24;4.30;;;0.70;;
23146;SDS011;11742;53.532;-1.478;2023-11-21T10:21:16;1.73;;;0.70;;
23146;SDS011;11742;53.532;-1.478;2023-11-21T10:24:05;2.17;;;0.77;;
23146;SDS011;11742;53.532;-1.478;2023-11-21T10:26:51;1.38;;;0.70;;
23146;SDS011;11742;53.532;-1.478;2023-11-21T10:29:39;2.63;;;0.75;;
23146;SDS011;11742;53.532;-1.478;2023-11-21T10:32:29;1.67;;;0.80;;
23146;SDS011;11742;53.532;-1.478;2023-11-21T10:35:19;2.63;;;0.85;;
23146;SDS011;11742;53.532;-1.478;2023-11-21T10:38:09;1.75;;;0.80;;
23146;SDS011;11742;53.532;-1.478;2023-11-21T10:41:12;4.43;;;1.20;;
23146;SDS011;11742;53.532;-1.478;2023-11-21T10:44:08;3.75;;;1.05;;
23146;SDS011;11742;53.532;-1.478;2023-11-21T10:47:13;3.30;;;0.90;;
23146;SDS011;11742;53.532;-1.478;2023-11-21T10:50:03;4.07;;;0.90;;
23146;SDS011;11742;53.532;-1.478;2023-11-21T10:52:52;4.93;;;1.02;;
23146;SDS011;11742;53.532;-1.478;2023-11-21T10:55:38;2.92;;;1.23;;
23146;SDS011;11742;53.532;-1.478;2023-11-21T10:58:32;2.30;;;0.82;;
23146;SDS011;11742;53.532;-1.478;2023-11-21T11:01:21;1.83;;;0.70;;
23146;SDS011;11742;53.532;-1.478;2023-11-21T11:04:11;2.38;;;0.65;;
23146;SDS011;11742;53.532;-1.478;2023-11-21T11:07:03;1.92;;;0.60;;
23146;SDS011;11742;53.532;-1.478;2023-11-21T11:09:56;1.50;;;0.68;;
23146;SDS011;11742;53.532;-1.478;2023-11-21T11:12:55;2.40;;;0.60;;
23146;SDS011;11742;53.532;-1.478;2023-11-21T11:15:49;1.85;;;0.80;;
23146;SDS011;11742;53.532;-1.478;2023-11-21T11:18:39;2.05;;;0.70;;
23146;SDS011;11742;53.532;-1.478;2023-11-21T11:30:57;0.75;;;0.60;;
23146;SDS011;11742;53.532;-1.478;2023-11-21T11:34:41;1.55;;;0.65;;
23146;SDS011;11742;53.532;-1.478;2023-11-21T11:37:31;0.80;;;0.70;;
23146;SDS011;11742;53.532;-1.478;2023-11-21T11:40:20;2.35;;;0.50;;
23146;SDS011;11742;53.532;-1.478;2023-11-21T11:43:27;1.58;;;0.55;;
23146;SDS011;11742;53.532;-1.478;2023-11-21T11:46:45;0.40;;;0.40;;
23146;SDS011;11742;53.532;-1.478;2023-11-21T11:49:31;2.20;;;0.50;;
23146;SDS011;11742;53.532;-1.478;2023-11-21T11:52:43;0.98;;;0.50;;
23146;SDS011;11742;53.532;-1.478;2023-11-21T11:55:32;1.30;;;0.50;;
23146;SDS011;11742;53.532;-1.478;2023-11-21T11:58:20;2.47;;;0.55;;
23146;SDS011;11742;53.532;-1.478;2023-11-21T12:01:06;1.58;;;0.70;;
23146;SDS011;11742;53.532;-1.478;2023-11-21T12:07:20;1.70;;;0.77;;
23146;SDS011;11742;53.532;-1.478;2023-11-21T12:10:11;1.48;;;0.55;;
23146;SDS011;11742;53.532;-1.478;2023-11-21T12:13:06;12.43;;;1.30;;
23146;SDS011;11742;53.532;-1.478;2023-11-21T12:15:53;10.23;;;2.30;;
23146;SDS011;11742;53.532;-1.478;2023-11-21T12:18:42;4.90;;;0.85;;
23146;SDS011;11742;53.532;-1.478;2023-11-21T12:21:48;2.35;;;1.20;;
23146;SDS011;11742;53.532;-1.478;2023-11-21T12:24:32;3.60;;;1.08;;
23146;SDS011;11742;53.532;-1.478;2023-11-21T12:27:24;4.38;;;1.05;;
23146;SDS011;11742;53.532;-1.478;2023-11-21T12:30:10;2.00;;;0.90;;
23146;SDS011;11742;53.532;-1.478;2023-11-21T12:33:04;4.55;;;1.25;;
23146;SDS011;11742;53.532;-1.478;2023-11-21T12:35:52;3.67;;;1.17;;
23146;SDS011;11742;53.532;-1.478;2023-11-21T12:38:42;3.72;;;1.52;;
23146;SDS011;11742;53.532;-1.478;2023-11-21T12:41:39;2.92;;;1.00;;
23146;SDS011;11742;53.532;-1.478;2023-11-21T12:44:45;3.05;;;1.30;;
23146;SDS011;11742;53.532;-1.478;2023-11-21T12:47:34;2.30;;;1.00;;
23146;SDS011;11742;53.532;-1.478;2023-11-21T12:50:22;3.88;;;0.85;;
23146;SDS011;11742;53.532;-1.478;2023-11-21T12:53:16;3.58;;;0.90;;
23146;SDS011;11742;53.532;-1.478;2023-11-21T12:56:24;3.35;;;0.90;;
23146;SDS011;11742;53.532;-1.478;2023-11-21T12:59:41;1.88;;;0.95;;
23146;SDS011;11742;53.532;-1.478;2023-11-21T13:02:30;1.40;;;0.80;;
23146;SDS011;11742;53.532;-1.478;2023-11-21T13:05:23;2.00;;;0.95;;
23146;SDS011;11742;53.532;-1.478;2023-11-21T13:08:27;2.85;;;0.75;;
23146;SDS011;11742;53.532;-1.478;2023-11-21T13:11:16;3.28;;;0.90;;
23146;SDS011;11742;53.532;-1.478;2023-11-21T13:14:02;4.13;;;1.10;;
23146;SDS011;11742;53.532;-1.478;2023-11-21T13:16:54;3.08;;;1.00;;
23146;SDS011;11742;53.532;-1.478;2023-11-21T13:19:41;4.60;;;1.00;;
23146;SDS011;11742;53.532;-1.478;2023-11-21T13:22:49;2.88;;;0.90;;
23146;SDS011;11742;53.532;-1.478;2023-11-21T13:25:44;1.50;;;0.90;;
23146;SDS011;11742;53.532;-1.478;2023-11-21T13:28:31;1.42;;;0.80;;
23146;SDS011;11742;53.532;-1.478;2023-11-21T13:31:19;1.63;;;0.82;;
23146;SDS011;11742;53.532;-1.478;2023-11-21T13:34:11;2.00;;;1.08;;
23146;SDS011;11742;53.532;-1.478;2023-11-21T13:37:01;1.75;;;0.80;;
23146;SDS011;11742;53.532;-1.478;2023-11-21T13:39:49;3.63;;;0.88;;
23146;SDS011;11742;53.532;-1.478;2023-11-21T13:42:39;2.03;;;0.85;;
23146;SDS011;11742;53.532;-1.478;2023-11-21T13:45:42;2.33;;;0.90;;
23146;SDS011;11742;53.532;-1.478;2023-11-21T13:48:56;2.30;;;0.73;;
23146;SDS011;11742;53.532;-1.478;2023-11-21T13:51:49;2.53;;;1.05;;
23146;SDS011;11742;53.532;-1.478;2023-11-21T13:54:45;1.63;;;0.70;;
23146;SDS011;11742;53.532;-1.478;2023-11-21T13:57:35;1.95;;;0.88;;
23146;SDS011;11742;53.532;-1.478;2023-11-21T14:00:21;3.15;;;0.80;;
23146;SDS011;11742;53.532;-1.478;2023-11-21T14:03:28;2.40;;;0.80;;
23146;SDS011;11742;53.532;-1.478;2023-11-21T14:06:23;2.85;;;0.93;;
23146;SDS011;11742;53.532;-1.478;2023-11-21T14:09:19;0.88;;;0.40;;
23146;SDS011;11742;53.532;-1.478;2023-11-21T14:12:09;1.30;;;0.80;;
23146;SDS011;11742;53.532;-1.478;2023-11-21T14:15:04;3.10;;;0.52;;
23146;SDS011;11742;53.532;-1.478;2023-11-21T14:17:52;0.60;;;0.60;;
23146;SDS011;11742;53.532;-1.478;2023-11-21T14:20:38;2.83;;;0.80;;
23146;SDS011;11742;53.532;-1.478;2023-11-21T14:23:25;0.75;;;0.70;;
23146;SDS011;11742;53.532;-1.478;2023-11-21T14:26:12;1.42;;;0.68;;
23146;SDS011;11742;53.532;-1.478;2023-11-21T14:29:00;4.10;;;0.90;;
23146;SDS011;11742;53.532;-1.478;2023-11-21T14:31:47;2.72;;;0.98;;
23146;SDS011;11742;53.532;-1.478;2023-11-21T14:34:33;2.58;;;1.00;;
23146;SDS011;11742;53.532;-1.478;2023-11-21T14:37:20;1.70;;;0.73;;
23146;SDS011;11742;53.532;-1.478;2023-11-21T14:40:17;1.60;;;0.98;;
23146;SDS011;11742;53.532;-1.478;2023-11-21T14:43:08;1.80;;;0.80;;
23146;SDS011;11742;53.532;-1.478;2023-11-21T14:46:18;4.57;;;1.20;;
23146;SDS011;11742;53.532;-1.478;2023-11-21T14:49:10;1.05;;;0.95;;
23146;SDS011;11742;53.532;-1.478;2023-11-21T14:52:03;4.63;;;0.98;;
23146;SDS011;11742;53.532;-1.478;2023-11-21T14:55:11;3.45;;;1.20;;
23146;SDS011;11742;53.532;-1.478;2023-11-21T14:58:15;7.20;;;1.45;;
23146;SDS011;11742;53.532;-1.478;2023-11-21T15:01:32;25.80;;;3.05;;
23146;SDS011;11742;53.532;-1.478;2023-11-21T15:04:48;7.57;;;1.92;;
23146;SDS011;11742;53.532;-1.478;2023-11-21T15:07:58;13.43;;;1.98;;
23146;SDS011;11742;53.532;-1.478;2023-11-21T15:11:04;4.75;;;1.60;;
23146;SDS011;11742;53.532;-1.478;2023-11-21T15:13:53;6.63;;;1.42;;
23146;SDS011;11742;53.532;-1.478;2023-11-21T15:16:53;11.20;;;2.92;;
23146;SDS011;11742;53.532;-1.478;2023-11-21T15:19:47;4.65;;;1.45;;
23146;SDS011;11742;53.532;-1.478;2023-11-21T15:22:34;5.38;;;1.67;;
23146;SDS011;11742;53.532;-1.478;2023-11-21T15:25:21;4.88;;;1.50;;
23146;SDS011;11742;53.532;-1.478;2023-11-21T15:28:06;3.25;;;1.42;;
23146;SDS011;11742;53.532;-1.478;2023-11-21T15:30:50;2.22;;;1.45;;
23146;SDS011;11742;53.532;-1.478;2023-11-21T15:33:35;5.88;;;1.90;;
23146;SDS011;11742;53.532;-1.478;2023-11-21T15:36:26;4.20;;;1.50;;
23146;SDS011;11742;53.532;-1.478;2023-11-21T15:39:34;4.78;;;1.42;;
23146;SDS011;11742;53.532;-1.478;2023-11-21T15:42:43;5.93;;;1.58;;
23146;SDS011;11742;53.532;-1.478;2023-11-21T15:45:33;2.95;;;1.45;;
23146;SDS011;11742;53.532;-1.478;2023-11-21T15:48:23;2.83;;;1.33;;
23146;SDS011;11742;53.532;-1.478;2023-11-21T15:51:10;3.20;;;0.93;;
23146;SDS011;11742;53.532;-1.478;2023-11-21T15:54:01;5.32;;;1.30;;
23146;SDS011;11742;53.532;-1.478;2023-11-21T15:56:53;3.83;;;2.25;;
23146;SDS011;11742;53.532;-1.478;2023-11-21T15:59:44;4.13;;;1.10;;
23146;SDS011;11742;53.532;-1.478;2023-11-21T16:02:30;2.03;;;0.90;;
23146;SDS011;11742;53.532;-1.478;2023-11-21T16:05:22;2.72;;;1.13;;
23146;SDS011;11742;53.532;-1.478;2023-11-21T16:08:09;2.47;;;1.10;;
23146;SDS011;11742;53.532;-1.478;2023-11-21T16:10:59;2.58;;;1.20;;
23146;SDS011;11742;53.532;-1.478;2023-11-21T16:13:44;1.00;;;0.88;;
23146;SDS011;11742;53.532;-1.478;2023-11-21T16:16:33;2.25;;;0.90;;
23146;SDS011;11742;53.532;-1.478;2023-11-21T16:19:28;2.90;;;1.25;;
23146;SDS011;11742;53.532;-1.478;2023-11-21T16:22:24;3.33;;;1.15;;
23146;SDS011;11742;53.532;-1.478;2023-11-21T16:25:14;4.88;;;1.30;;
23146;SDS011;11742;53.532;-1.478;2023-11-21T16:27:59;5.43;;;1.27;;
23146;SDS011;11742;53.532;-1.478;2023-11-21T16:30:48;2.15;;;1.00;;
23146;SDS011;11742;53.532;-1.478;2023-11-21T16:33:42;2.17;;;0.70;;
23146;SDS011;11742;53.532;-1.478;2023-11-21T16:36:30;5.78;;;1.30;;
23146;SDS011;11742;53.532;-1.478;2023-11-21T16:39:15;4.50;;;1.10;;
23146;SDS011;11742;53.532;-1.478;2023-11-21T16:42:04;2.67;;;1.35;;
23146;SDS011;11742;53.532;-1.478;2023-11-21T16:44:51;3.95;;;1.17;;
23146;SDS011;11742;53.532;-1.478;2023-11-21T16:47:38;3.80;;;1.20;;
23146;SDS011;11742;53.532;-1.478;2023-11-21T16:50:25;3.50;;;1.23;;
23146;SDS011;11742;53.532;-1.478;2023-11-21T16:53:09;1.38;;;1.10;;
23146;SDS011;11742;53.532;-1.478;2023-11-21T16:55:53;1.88;;;1.10;;
23146;SDS011;11742;53.532;-1.478;2023-11-21T16:58:38;1.88;;;1.00;;
23146;SDS011;11742;53.532;-1.478;2023-11-21T17:01:23;2.25;;;1.13;;
23146;SDS011;11742;53.532;-1.478;2023-11-21T17:04:09;1.75;;;0.98;;
23146;SDS011;11742;53.532;-1.478;2023-11-21T17:06:55;3.30;;;1.20;;
23146;SDS011;11742;53.532;-1.478;2023-11-21T17:09:40;3.60;;;1.20;;
23146;SDS011;11742;53.532;-1.478;2023-11-21T17:12:24;3.08;;;1.17;;